sensor_id;sensor_type;location;lat;lon;timestamp;P1;durP1;ratioP1;P2;durP2;ratioP2
3543;SDS011;1786;52.870;9.578;2023-02-28T00:00:27;4.90;;;3.50;;
3543;SDS011;1786;52.870;9.578;2023-02-28T00:02:54;4.00;;;3.57;;
3543;SDS011;1786;52.870;9.578;2023-02-28T00:05:21;7.13;;;3.60;;
3543;SDS011;1786;52.870;9.578;2023-02-28T00:07:48;7.40;;;3.53;;
3543;SDS011;1786;52.870;9.578;2023-02-28T00:10:16;5.20;;;3.90;;
3543;SDS011;1786;52.870;9.578;2023-02-28T00:12:47;5.90;;;3.60;;
3543;SDS011;1786;52.870;9.578;2023-02-28T00:15:13;4.13;;;3.50;;
3543;SDS011;1786;52.870;9.578;2023-02-28T00:17:40;5.73;;;3.53;;
3543;SDS011;1786;52.870;9.578;2023-02-28T00:20:07;4.73;;;3.27;;
3543;SDS011;1786;52.870;9.578;2023-02-28T00:22:38;5.97;;;3.60;;
3543;SDS011;1786;52.870;9.578;2023-02-28T00:25:05;6.30;;;3.43;;
3543;SDS011;1786;52.870;9.578;2023-02-28T00:27:33;6.70;;;4.03;;
3543;SDS011;1786;52.870;9.578;2023-02-28T00:30:03;6.80;;;3.90;;
3543;SDS011;1786;52.870;9.578;2023-02-28T00:32:30;3.63;;;3.33;;
3543;SDS011;1786;52.870;9.578;2023-02-28T00:34:56;3.83;;;3.53;;
3543;SDS011;1786;52.870;9.578;2023-02-28T00:37:23;3.43;;;3.20;;
3543;SDS011;1786;52.870;9.578;2023-02-28T00:39:49;3.17;;;2.93;;
3543;SDS011;1786;52.870;9.578;2023-02-28T00:42:16;3.27;;;3.03;;
3543;SDS011;1786;52.870;9.578;2023-02-28T00:44:43;3.93;;;3.63;;
3543;SDS011;1786;52.870;9.578;2023-02-28T00:47:10;3.67;;;3.40;;
3543;SDS011;1786;52.870;9.578;2023-02-28T00:49:37;5.03;;;3.70;;
3543;SDS011;1786;52.870;9.578;2023-02-28T00:52:03;3.80;;;3.33;;
3543;SDS011;1786;52.870;9.578;2023-02-28T00:54:30;5.53;;;3.90;;
3543;SDS011;1786;52.870;9.578;2023-02-28T00:56:56;4.23;;;2.93;;
3543;SDS011;1786;52.870;9.578;2023-02-28T00:59:24;3.00;;;2.80;;
3543;SDS011;1786;52.870;9.578;2023-02-28T01:01:50;3.70;;;3.07;;
3543;SDS011;1786;52.870;9.578;2023-02-28T01:04:17;4.70;;;3.00;;
3543;SDS011;1786;52.870;9.578;2023-02-28T01:06:43;6.00;;;3.20;;
3543;SDS011;1786;52.870;9.578;2023-02-28T01:09:10;3.77;;;3.13;;
3543;SDS011;1786;52.870;9.578;2023-02-28T01:11:37;3.70;;;3.23;;
3543;SDS011;1786;52.870;9.578;2023-02-28T01:14:04;4.20;;;3.17;;
3543;SDS011;1786;52.870;9.578;2023-02-28T01:16:31;3.83;;;3.20;;
3543;SDS011;1786;52.870;9.578;2023-02-28T01:18:57;6.50;;;4.27;;
3543;SDS011;1786;52.870;9.578;2023-02-28T01:21:24;4.57;;;3.77;;
3543;SDS011;1786;52.870;9.578;2023-02-28T01:23:51;6.93;;;4.50;;
3543;SDS011;1786;52.870;9.578;2023-02-28T01:26:19;4.37;;;3.97;;
3543;SDS011;1786;52.870;9.578;2023-02-28T01:28:46;9.63;;;3.87;;
3543;SDS011;1786;52.870;9.578;2023-02-28T01:31:13;7.27;;;4.93;;
3543;SDS011;1786;52.870;9.578;2023-02-28T01:33:40;4.00;;;3.57;;
3543;SDS011;1786;52.870;9.578;2023-02-28T01:36:10;5.00;;;4.60;;
3543;SDS011;1786;52.870;9.578;2023-02-28T01:38:37;5.47;;;4.33;;
3543;SDS011;1786;52.870;9.578;2023-02-28T01:41:04;3.93;;;3.63;;
3543;SDS011;1786;52.870;9.578;2023-02-28T01:43:54;4.37;;;3.70;;
3543;SDS011;1786;52.870;9.578;2023-02-28T01:46:19;4.43;;;4.03;;
3543;SDS011;1786;52.870;9.578;2023-02-28T01:49:08;4.30;;;3.37;;
3543;SDS011;1786;52.870;9.578;2023-02-28T01:54:01;4.20;;;3.87;;
3543;SDS011;1786;52.870;9.578;2023-02-28T01:56:29;10.00;;;4.17;;
3543;SDS011;1786;52.870;9.578;2023-02-28T01:58:56;3.63;;;3.33;;
3543;SDS011;1786;52.870;9.578;2023-02-28T02:01:23;6.07;;;3.97;;
3543;SDS011;1786;52.870;9.578;2023-02-28T02:03:55;4.53;;;3.60;;
3543;SDS011;1786;52.870;9.578;2023-02-28T02:06:24;6.50;;;3.87;;
3543;SDS011;1786;52.870;9.578;2023-02-28T02:08:51;4.90;;;4.30;;
3543;SDS011;1786;52.870;9.578;2023-02-28T02:11:19;4.37;;;3.90;;
3543;SDS011;1786;52.870;9.578;2023-02-28T02:13:57;4.13;;;3.67;;
3543;SDS011;1786;52.870;9.578;2023-02-28T02:16:34;4.70;;;3.40;;
3543;SDS011;1786;52.870;9.578;2023-02-28T02:27:16;4.40;;;4.00;;
3543;SDS011;1786;52.870;9.578;2023-02-28T02:32:28;3.70;;;3.37;;
3543;SDS011;1786;52.870;9.578;2023-02-28T02:40:14;4.17;;;3.87;;
3543;SDS011;1786;52.870;9.578;2023-02-28T02:45:12;5.37;;;3.33;;
3543;SDS011;1786;52.870;9.578;2023-02-28T02:47:41;6.33;;;3.67;;
3543;SDS011;1786;52.870;9.578;2023-02-28T02:50:10;5.97;;;4.03;;
3543;SDS011;1786;52.870;9.578;2023-02-28T02:52:40;5.53;;;3.90;;
3543;SDS011;1786;52.870;9.578;2023-02-28T02:55:07;6.70;;;3.60;;
3543;SDS011;1786;52.870;9.578;2023-02-28T02:57:43;4.40;;;3.73;;
3543;SDS011;1786;52.870;9.578;2023-02-28T03:00:12;6.70;;;4.07;;
3543;SDS011;1786;52.870;9.578;2023-02-28T03:02:41;3.73;;;3.43;;
3543;SDS011;1786;52.870;9.578;2023-02-28T03:05:20;4.37;;;3.97;;
3543;SDS011;1786;52.870;9.578;2023-02-28T03:07:47;10.50;;;3.20;;
3543;SDS011;1786;52.870;9.578;2023-02-28T03:10:31;5.57;;;3.40;;
3543;SDS011;1786;52.870;9.578;2023-02-28T03:15:37;3.57;;;3.13;;
3543;SDS011;1786;52.870;9.578;2023-02-28T03:18:08;4.57;;;3.27;;
3543;SDS011;1786;52.870;9.578;2023-02-28T03:20:52;3.30;;;3.10;;
3543;SDS011;1786;52.870;9.578;2023-02-28T03:23:23;4.90;;;3.00;;
3543;SDS011;1786;52.870;9.578;2023-02-28T03:33:55;5.90;;;4.03;;
3543;SDS011;1786;52.870;9.578;2023-02-28T03:36:29;3.93;;;3.70;;
3543;SDS011;1786;52.870;9.578;2023-02-28T03:38:58;7.30;;;3.50;;
3543;SDS011;1786;52.870;9.578;2023-02-28T03:44:23;3.83;;;3.40;;
3543;SDS011;1786;52.870;9.578;2023-02-28T03:47:10;4.47;;;4.07;;
3543;SDS011;1786;52.870;9.578;2023-02-28T03:49:41;4.57;;;3.60;;
3543;SDS011;1786;52.870;9.578;2023-02-28T03:52:09;4.63;;;3.80;;
3543;SDS011;1786;52.870;9.578;2023-02-28T03:54:38;5.47;;;3.60;;
3543;SDS011;1786;52.870;9.578;2023-02-28T03:57:10;3.63;;;3.17;;
3543;SDS011;1786;52.870;9.578;2023-02-28T03:59:47;7.90;;;3.50;;
3543;SDS011;1786;52.870;9.578;2023-02-28T04:02:16;3.87;;;3.57;;
3543;SDS011;1786;52.870;9.578;2023-02-28T04:04:42;5.97;;;3.60;;
3543;SDS011;1786;52.870;9.578;2023-02-28T04:07:15;3.77;;;2.87;;
3543;SDS011;1786;52.870;9.578;2023-02-28T04:09:42;5.03;;;3.20;;
3543;SDS011;1786;52.870;9.578;2023-02-28T04:12:08;3.97;;;3.20;;
3543;SDS011;1786;52.870;9.578;2023-02-28T04:14:35;5.17;;;2.70;;
3543;SDS011;1786;52.870;9.578;2023-02-28T04:17:01;5.20;;;3.03;;
3543;SDS011;1786;52.870;9.578;2023-02-28T04:19:28;3.57;;;2.90;;
3543;SDS011;1786;52.870;9.578;2023-02-28T04:21:54;4.97;;;3.20;;
3543;SDS011;1786;52.870;9.578;2023-02-28T04:24:22;2.63;;;2.53;;
3543;SDS011;1786;52.870;9.578;2023-02-28T04:26:50;3.90;;;3.03;;
3543;SDS011;1786;52.870;9.578;2023-02-28T04:29:18;3.13;;;2.83;;
3543;SDS011;1786;52.870;9.578;2023-02-28T04:31:45;2.77;;;2.57;;
3543;SDS011;1786;52.870;9.578;2023-02-28T04:34:12;5.00;;;2.77;;
3543;SDS011;1786;52.870;9.578;2023-02-28T04:36:38;2.70;;;2.50;;
3543;SDS011;1786;52.870;9.578;2023-02-28T04:39:05;3.20;;;2.90;;
3543;SDS011;1786;52.870;9.578;2023-02-28T04:41:31;3.23;;;2.03;;
3543;SDS011;1786;52.870;9.578;2023-02-28T04:43:59;3.77;;;3.47;;
3543;SDS011;1786;52.870;9.578;2023-02-28T04:46:26;5.20;;;3.13;;
3543;SDS011;1786;52.870;9.578;2023-02-28T04:48:52;9.40;;;3.07;;
3543;SDS011;1786;52.870;9.578;2023-02-28T04:51:20;7.23;;;2.80;;
3543;SDS011;1786;52.870;9.578;2023-02-28T04:53:48;4.23;;;3.03;;
3543;SDS011;1786;52.870;9.578;2023-02-28T04:56:15;3.40;;;3.17;;
3543;SDS011;1786;52.870;9.578;2023-02-28T04:58:42;3.07;;;2.80;;
3543;SDS011;1786;52.870;9.578;2023-02-28T05:01:44;3.20;;;2.90;;
3543;SDS011;1786;52.870;9.578;2023-02-28T05:04:03;4.27;;;3.20;;
3543;SDS011;1786;52.870;9.578;2023-02-28T05:06:31;3.23;;;2.93;;
3543;SDS011;1786;52.870;9.578;2023-02-28T05:08:58;3.47;;;2.80;;
3543;SDS011;1786;52.870;9.578;2023-02-28T05:11:26;2.93;;;2.73;;
3543;SDS011;1786;52.870;9.578;2023-02-28T05:13:53;3.50;;;2.90;;
3543;SDS011;1786;52.870;9.578;2023-02-28T05:16:20;4.90;;;2.97;;
3543;SDS011;1786;52.870;9.578;2023-02-28T05:18:47;3.07;;;2.87;;
3543;SDS011;1786;52.870;9.578;2023-02-28T05:23:53;3.70;;;2.87;;
3543;SDS011;1786;52.870;9.578;2023-02-28T05:26:19;7.10;;;3.70;;
3543;SDS011;1786;52.870;9.578;2023-02-28T05:28:46;3.37;;;2.97;;
3543;SDS011;1786;52.870;9.578;2023-02-28T05:31:13;4.10;;;3.30;;
3543;SDS011;1786;52.870;9.578;2023-02-28T05:33:39;5.77;;;2.70;;
3543;SDS011;1786;52.870;9.578;2023-02-28T05:36:06;7.13;;;2.90;;
3543;SDS011;1786;52.870;9.578;2023-02-28T05:38:33;3.17;;;2.97;;
3543;SDS011;1786;52.870;9.578;2023-02-28T05:40:59;3.23;;;3.03;;
3543;SDS011;1786;52.870;9.578;2023-02-28T05:43:26;4.90;;;3.10;;
3543;SDS011;1786;52.870;9.578;2023-02-28T05:45:52;6.57;;;2.80;;
3543;SDS011;1786;52.870;9.578;2023-02-28T05:48:19;2.73;;;2.63;;
3543;SDS011;1786;52.870;9.578;2023-02-28T05:50:45;3.40;;;3.20;;
3543;SDS011;1786;52.870;9.578;2023-02-28T05:53:12;5.23;;;3.37;;
3543;SDS011;1786;52.870;9.578;2023-02-28T05:55:38;3.80;;;3.37;;
3543;SDS011;1786;52.870;9.578;2023-02-28T05:58:07;5.30;;;2.80;;
3543;SDS011;1786;52.870;9.578;2023-02-28T06:00:34;3.30;;;2.50;;
3543;SDS011;1786;52.870;9.578;2023-02-28T06:03:01;3.73;;;2.57;;
3543;SDS011;1786;52.870;9.578;2023-02-28T06:05:28;3.70;;;2.30;;
3543;SDS011;1786;52.870;9.578;2023-02-28T06:07:54;4.67;;;3.37;;
3543;SDS011;1786;52.870;9.578;2023-02-28T06:10:21;2.93;;;2.73;;
3543;SDS011;1786;52.870;9.578;2023-02-28T06:12:47;8.13;;;3.50;;
3543;SDS011;1786;52.870;9.578;2023-02-28T06:15:14;3.00;;;2.80;;
3543;SDS011;1786;52.870;9.578;2023-02-28T06:17:42;3.27;;;3.07;;
3543;SDS011;1786;52.870;9.578;2023-02-28T06:20:09;3.20;;;2.90;;
3543;SDS011;1786;52.870;9.578;2023-02-28T06:22:36;3.53;;;3.23;;
3543;SDS011;1786;52.870;9.578;2023-02-28T06:25:03;5.00;;;3.37;;
3543;SDS011;1786;52.870;9.578;2023-02-28T06:27:30;5.03;;;2.50;;
3543;SDS011;1786;52.870;9.578;2023-02-28T06:29:57;3.33;;;2.63;;
3543;SDS011;1786;52.870;9.578;2023-02-28T06:32:24;3.53;;;2.67;;
3543;SDS011;1786;52.870;9.578;2023-02-28T06:34:51;4.00;;;2.23;;
3543;SDS011;1786;52.870;9.578;2023-02-28T06:37:17;3.93;;;2.80;;
3543;SDS011;1786;52.870;9.578;2023-02-28T06:39:44;2.80;;;2.70;;
3543;SDS011;1786;52.870;9.578;2023-02-28T06:42:11;2.60;;;2.40;;
3543;SDS011;1786;52.870;9.578;2023-02-28T06:44:38;3.00;;;2.70;;
3543;SDS011;1786;52.870;9.578;2023-02-28T06:47:04;2.30;;;2.10;;
3543;SDS011;1786;52.870;9.578;2023-02-28T06:49:32;2.80;;;2.20;;
3543;SDS011;1786;52.870;9.578;2023-02-28T06:51:58;3.60;;;2.97;;
3543;SDS011;1786;52.870;9.578;2023-02-28T06:54:25;2.70;;;2.50;;
3543;SDS011;1786;52.870;9.578;2023-02-28T06:56:51;2.97;;;2.30;;
3543;SDS011;1786;52.870;9.578;2023-02-28T06:59:19;3.23;;;2.93;;
3543;SDS011;1786;52.870;9.578;2023-02-28T07:01:46;3.43;;;3.13;;
3543;SDS011;1786;52.870;9.578;2023-02-28T07:04:13;4.40;;;2.90;;
3543;SDS011;1786;52.870;9.578;2023-02-28T07:06:40;5.60;;;2.30;;
3543;SDS011;1786;52.870;9.578;2023-02-28T07:09:06;3.60;;;3.30;;
3543;SDS011;1786;52.870;9.578;2023-02-28T07:11:35;3.23;;;3.03;;
3543;SDS011;1786;52.870;9.578;2023-02-28T07:14:02;3.00;;;2.80;;
3543;SDS011;1786;52.870;9.578;2023-02-28T07:16:28;3.27;;;3.00;;
3543;SDS011;1786;52.870;9.578;2023-02-28T07:18:55;4.13;;;3.70;;
3543;SDS011;1786;52.870;9.578;2023-02-28T07:21:21;4.23;;;3.87;;
3543;SDS011;1786;52.870;9.578;2023-02-28T07:23:49;6.50;;;5.90;;
3543;SDS011;1786;52.870;9.578;2023-02-28T07:26:16;10.37;;;7.80;;
3543;SDS011;1786;52.870;9.578;2023-02-28T07:28:44;4.57;;;3.53;;
3543;SDS011;1786;52.870;9.578;2023-02-28T07:31:11;5.63;;;5.13;;
3543;SDS011;1786;52.870;9.578;2023-02-28T07:33:40;5.83;;;5.00;;
3543;SDS011;1786;52.870;9.578;2023-02-28T07:36:08;4.30;;;3.90;;
3543;SDS011;1786;52.870;9.578;2023-02-28T07:38:35;3.77;;;3.47;;
3543;SDS011;1786;52.870;9.578;2023-02-28T07:41:03;4.33;;;4.00;;
3543;SDS011;1786;52.870;9.578;2023-02-28T07:43:32;4.07;;;3.33;;
3543;SDS011;1786;52.870;9.578;2023-02-28T07:46:01;3.80;;;3.50;;
3543;SDS011;1786;52.870;9.578;2023-02-28T07:48:27;4.43;;;4.13;;
3543;SDS011;1786;52.870;9.578;2023-02-28T07:50:57;13.37;;;12.27;;
3543;SDS011;1786;52.870;9.578;2023-02-28T07:53:23;4.60;;;4.30;;
3543;SDS011;1786;52.870;9.578;2023-02-28T07:55:50;5.03;;;4.73;;
3543;SDS011;1786;52.870;9.578;2023-02-28T07:58:16;6.03;;;5.63;;
3543;SDS011;1786;52.870;9.578;2023-02-28T08:00:43;4.43;;;4.03;;
3543;SDS011;1786;52.870;9.578;2023-02-28T08:03:11;3.80;;;3.53;;
3543;SDS011;1786;52.870;9.578;2023-02-28T08:05:39;3.80;;;3.50;;
3543;SDS011;1786;52.870;9.578;2023-02-28T08:08:07;4.23;;;3.93;;
3543;SDS011;1786;52.870;9.578;2023-02-28T08:10:33;4.63;;;4.20;;
3543;SDS011;1786;52.870;9.578;2023-02-28T08:13:00;3.93;;;3.73;;
3543;SDS011;1786;52.870;9.578;2023-02-28T08:15:26;4.00;;;3.80;;
3543;SDS011;1786;52.870;9.578;2023-02-28T08:17:53;3.20;;;2.97;;
3543;SDS011;1786;52.870;9.578;2023-02-28T08:20:19;3.17;;;2.97;;
3543;SDS011;1786;52.870;9.578;2023-02-28T08:22:46;4.10;;;3.70;;
3543;SDS011;1786;52.870;9.578;2023-02-28T08:25:12;3.53;;;3.30;;
3543;SDS011;1786;52.870;9.578;2023-02-28T08:27:39;14.63;;;4.00;;
3543;SDS011;1786;52.870;9.578;2023-02-28T08:30:06;4.07;;;3.77;;
3543;SDS011;1786;52.870;9.578;2023-02-28T08:32:33;2.97;;;2.77;;
3543;SDS011;1786;52.870;9.578;2023-02-28T08:35:00;6.20;;;5.60;;
3543;SDS011;1786;52.870;9.578;2023-02-28T08:37:26;8.13;;;5.60;;
3543;SDS011;1786;52.870;9.578;2023-02-28T08:39:53;4.00;;;3.70;;
3543;SDS011;1786;52.870;9.578;2023-02-28T08:42:22;4.70;;;3.97;;
3543;SDS011;1786;52.870;9.578;2023-02-28T08:44:49;4.60;;;4.20;;
3543;SDS011;1786;52.870;9.578;2023-02-28T08:47:15;3.13;;;2.97;;
3543;SDS011;1786;52.870;9.578;2023-02-28T08:49:41;4.43;;;3.03;;
3543;SDS011;1786;52.870;9.578;2023-02-28T08:52:08;2.80;;;2.60;;
3543;SDS011;1786;52.870;9.578;2023-02-28T08:54:35;3.50;;;3.30;;
3543;SDS011;1786;52.870;9.578;2023-02-28T08:57:02;2.75;;;2.58;;
3543;SDS011;1786;52.870;9.578;2023-02-28T08:59:29;2.85;;;2.55;;
3543;SDS011;1786;52.870;9.578;2023-02-28T09:01:56;3.33;;;3.05;;
3543;SDS011;1786;52.870;9.578;2023-02-28T09:04:22;1.95;;;1.85;;
3543;SDS011;1786;52.870;9.578;2023-02-28T09:06:50;2.00;;;1.90;;
3543;SDS011;1786;52.870;9.578;2023-02-28T09:09:17;2.47;;;2.35;;
3543;SDS011;1786;52.870;9.578;2023-02-28T09:11:44;1.38;;;1.38;;
3543;SDS011;1786;52.870;9.578;2023-02-28T09:14:10;1.85;;;1.70;;
3543;SDS011;1786;52.870;9.578;2023-02-28T09:16:37;1.38;;;1.38;;
3543;SDS011;1786;52.870;9.578;2023-02-28T09:19:04;1.30;;;1.20;;
3543;SDS011;1786;52.870;9.578;2023-02-28T09:21:30;1.45;;;1.45;;
3543;SDS011;1786;52.870;9.578;2023-02-28T09:23:57;1.00;;;1.00;;
3543;SDS011;1786;52.870;9.578;2023-02-28T09:26:24;1.33;;;1.30;;
3543;SDS011;1786;52.870;9.578;2023-02-28T09:28:51;1.85;;;1.73;;
3543;SDS011;1786;52.870;9.578;2023-02-28T09:31:20;1.05;;;1.00;;
3543;SDS011;1786;52.870;9.578;2023-02-28T09:33:50;1.05;;;1.05;;
3543;SDS011;1786;52.870;9.578;2023-02-28T09:36:17;0.60;;;0.60;;
3543;SDS011;1786;52.870;9.578;2023-02-28T09:38:43;0.90;;;0.90;;
3543;SDS011;1786;52.870;9.578;2023-02-28T09:41:13;0.80;;;0.80;;
3543;SDS011;1786;52.870;9.578;2023-02-28T09:43:40;1.20;;;1.10;;
3543;SDS011;1786;52.870;9.578;2023-02-28T09:46:30;0.70;;;0.70;;
3543;SDS011;1786;52.870;9.578;2023-02-28T09:48:59;0.70;;;0.70;;
3543;SDS011;1786;52.870;9.578;2023-02-28T09:51:33;0.80;;;0.80;;
3543;SDS011;1786;52.870;9.578;2023-02-28T09:54:01;0.87;;;0.87;;
3543;SDS011;1786;52.870;9.578;2023-02-28T09:56:31;1.03;;;1.00;;
3543;SDS011;1786;52.870;9.578;2023-02-28T09:59:02;1.10;;;1.10;;
3543;SDS011;1786;52.870;9.578;2023-02-28T10:04:12;1.13;;;1.00;;
3543;SDS011;1786;52.870;9.578;2023-02-28T10:06:49;0.83;;;0.83;;
3543;SDS011;1786;52.870;9.578;2023-02-28T10:11:43;1.00;;;1.00;;
3543;SDS011;1786;52.870;9.578;2023-02-28T10:14:17;1.07;;;1.00;;
3543;SDS011;1786;52.870;9.578;2023-02-28T10:16:46;1.13;;;0.80;;
3543;SDS011;1786;52.870;9.578;2023-02-28T10:19:20;1.00;;;1.00;;
3543;SDS011;1786;52.870;9.578;2023-02-28T10:22:10;0.90;;;0.90;;
3543;SDS011;1786;52.870;9.578;2023-02-28T10:24:41;3.90;;;0.97;;
3543;SDS011;1786;52.870;9.578;2023-02-28T10:27:15;2.30;;;0.93;;
3543;SDS011;1786;52.870;9.578;2023-02-28T10:29:44;2.23;;;1.07;;
3543;SDS011;1786;52.870;9.578;2023-02-28T10:32:11;0.80;;;0.80;;
3543;SDS011;1786;52.870;9.578;2023-02-28T10:34:39;1.97;;;1.10;;
3543;SDS011;1786;52.870;9.578;2023-02-28T10:37:06;1.10;;;1.10;;
3543;SDS011;1786;52.870;9.578;2023-02-28T10:39:37;2.10;;;0.97;;
3543;SDS011;1786;52.870;9.578;2023-02-28T10:42:04;1.17;;;0.73;;
3543;SDS011;1786;52.870;9.578;2023-02-28T10:44:31;0.90;;;0.90;;
3543;SDS011;1786;52.870;9.578;2023-02-28T10:46:58;0.70;;;0.70;;
3543;SDS011;1786;52.870;9.578;2023-02-28T10:49:26;0.63;;;0.63;;
3543;SDS011;1786;52.870;9.578;2023-02-28T10:51:54;1.17;;;1.17;;
3543;SDS011;1786;52.870;9.578;2023-02-28T10:54:30;0.80;;;0.80;;
3543;SDS011;1786;52.870;9.578;2023-02-28T10:59:41;0.70;;;0.70;;
3543;SDS011;1786;52.870;9.578;2023-02-28T11:04:53;0.70;;;0.70;;
3543;SDS011;1786;52.870;9.578;2023-02-28T11:07:21;0.87;;;0.80;;
3543;SDS011;1786;52.870;9.578;2023-02-28T11:09:51;0.70;;;0.70;;
3543;SDS011;1786;52.870;9.578;2023-02-28T11:14:52;0.87;;;0.70;;
3543;SDS011;1786;52.870;9.578;2023-02-28T11:17:20;0.77;;;0.77;;
3543;SDS011;1786;52.870;9.578;2023-02-28T11:19:49;0.90;;;0.80;;
3543;SDS011;1786;52.870;9.578;2023-02-28T11:22:20;3.03;;;1.07;;
3543;SDS011;1786;52.870;9.578;2023-02-28T11:24:49;0.90;;;0.80;;
3543;SDS011;1786;52.870;9.578;2023-02-28T11:29:58;2.97;;;0.70;;
3543;SDS011;1786;52.870;9.578;2023-02-28T11:32:28;0.87;;;0.87;;
3543;SDS011;1786;52.870;9.578;2023-02-28T11:35:10;0.67;;;0.67;;
3543;SDS011;1786;52.870;9.578;2023-02-28T11:37:40;0.80;;;0.80;;
3543;SDS011;1786;52.870;9.578;2023-02-28T11:40:14;0.70;;;0.70;;
3543;SDS011;1786;52.870;9.578;2023-02-28T11:42:48;0.70;;;0.70;;
3543;SDS011;1786;52.870;9.578;2023-02-28T11:55:39;1.10;;;1.00;;
3543;SDS011;1786;52.870;9.578;2023-02-28T12:08:17;2.00;;;0.90;;
3543;SDS011;1786;52.870;9.578;2023-02-28T12:10:57;1.00;;;0.83;;
3543;SDS011;1786;52.870;9.578;2023-02-28T12:13:29;0.93;;;0.70;;
3543;SDS011;1786;52.870;9.578;2023-02-28T12:16:04;1.00;;;0.90;;
3543;SDS011;1786;52.870;9.578;2023-02-28T12:18:48;2.30;;;1.00;;
3543;SDS011;1786;52.870;9.578;2023-02-28T12:21:25;0.90;;;0.90;;
3543;SDS011;1786;52.870;9.578;2023-02-28T12:23:57;1.60;;;1.50;;
3543;SDS011;1786;52.870;9.578;2023-02-28T12:26:36;1.60;;;0.90;;
3543;SDS011;1786;52.870;9.578;2023-02-28T12:31:40;1.00;;;1.00;;
3543;SDS011;1786;52.870;9.578;2023-02-28T12:34:13;1.00;;;1.00;;
3543;SDS011;1786;52.870;9.578;2023-02-28T12:36:42;2.20;;;0.70;;
3543;SDS011;1786;52.870;9.578;2023-02-28T12:39:12;0.90;;;0.90;;
3543;SDS011;1786;52.870;9.578;2023-02-28T12:41:44;0.70;;;0.70;;
3543;SDS011;1786;52.870;9.578;2023-02-28T12:44:56;1.00;;;1.00;;
3543;SDS011;1786;52.870;9.578;2023-02-28T12:47:02;0.80;;;0.80;;
3543;SDS011;1786;52.870;9.578;2023-02-28T12:49:33;0.77;;;0.77;;
3543;SDS011;1786;52.870;9.578;2023-02-28T12:52:00;1.20;;;1.10;;
3543;SDS011;1786;52.870;9.578;2023-02-28T12:59:44;4.50;;;1.00;;
3543;SDS011;1786;52.870;9.578;2023-02-28T13:04:57;1.00;;;0.83;;
3543;SDS011;1786;52.870;9.578;2023-02-28T13:07:31;1.20;;;0.83;;
3543;SDS011;1786;52.870;9.578;2023-02-28T13:10:02;1.07;;;0.93;;
3543;SDS011;1786;52.870;9.578;2023-02-28T13:12:29;1.07;;;1.07;;
3543;SDS011;1786;52.870;9.578;2023-02-28T13:17:56;1.47;;;0.80;;
3543;SDS011;1786;52.870;9.578;2023-02-28T13:20:26;0.90;;;0.80;;
3543;SDS011;1786;52.870;9.578;2023-02-28T13:22:54;1.37;;;0.80;;
3543;SDS011;1786;52.870;9.578;2023-02-28T13:27:51;0.70;;;0.70;;
3543;SDS011;1786;52.870;9.578;2023-02-28T13:35:46;0.70;;;0.70;;
3543;SDS011;1786;52.870;9.578;2023-02-28T13:38:17;1.07;;;0.70;;
3543;SDS011;1786;52.870;9.578;2023-02-28T13:40:47;0.77;;;0.77;;
3543;SDS011;1786;52.870;9.578;2023-02-28T13:43:15;2.60;;;1.00;;
3543;SDS011;1786;52.870;9.578;2023-02-28T13:46:03;1.30;;;1.30;;
3543;SDS011;1786;52.870;9.578;2023-02-28T13:48:31;2.13;;;1.00;;
3543;SDS011;1786;52.870;9.578;2023-02-28T13:50:58;0.80;;;0.70;;
3543;SDS011;1786;52.870;9.578;2023-02-28T13:56:09;0.80;;;0.80;;
3543;SDS011;1786;52.870;9.578;2023-02-28T13:58:52;1.50;;;0.90;;
3543;SDS011;1786;52.870;9.578;2023-02-28T14:06:35;2.10;;;1.23;;
3543;SDS011;1786;52.870;9.578;2023-02-28T14:09:06;0.70;;;0.70;;
3543;SDS011;1786;52.870;9.578;2023-02-28T14:11:42;0.70;;;0.70;;
3543;SDS011;1786;52.870;9.578;2023-02-28T14:14:10;0.70;;;0.70;;
3543;SDS011;1786;52.870;9.578;2023-02-28T14:16:56;1.27;;;0.93;;
3543;SDS011;1786;52.870;9.578;2023-02-28T14:19:24;0.80;;;0.80;;
3543;SDS011;1786;52.870;9.578;2023-02-28T14:24:43;1.23;;;0.83;;
3543;SDS011;1786;52.870;9.578;2023-02-28T14:27:16;0.80;;;0.80;;
3543;SDS011;1786;52.870;9.578;2023-02-28T14:35:04;1.60;;;0.80;;
3543;SDS011;1786;52.870;9.578;2023-02-28T14:37:37;0.80;;;0.80;;
3543;SDS011;1786;52.870;9.578;2023-02-28T14:40:11;1.20;;;1.20;;
3543;SDS011;1786;52.870;9.578;2023-02-28T14:42:38;1.10;;;1.10;;
3543;SDS011;1786;52.870;9.578;2023-02-28T14:45:17;0.80;;;0.80;;
3543;SDS011;1786;52.870;9.578;2023-02-28T14:47:43;2.10;;;0.90;;
3543;SDS011;1786;52.870;9.578;2023-02-28T14:50:24;1.70;;;1.50;;
3543;SDS011;1786;52.870;9.578;2023-02-28T14:52:53;1.27;;;0.83;;
3543;SDS011;1786;52.870;9.578;2023-02-28T14:55:31;1.57;;;0.80;;
3543;SDS011;1786;52.870;9.578;2023-02-28T14:57:59;1.00;;;0.83;;
3543;SDS011;1786;52.870;9.578;2023-02-28T15:00:27;0.90;;;0.90;;
3543;SDS011;1786;52.870;9.578;2023-02-28T15:02:54;1.47;;;0.90;;
3543;SDS011;1786;52.870;9.578;2023-02-28T15:05:26;1.47;;;0.97;;
3543;SDS011;1786;52.870;9.578;2023-02-28T15:10:29;0.83;;;0.83;;
3543;SDS011;1786;52.870;9.578;2023-02-28T15:13:01;1.57;;;0.80;;
3543;SDS011;1786;52.870;9.578;2023-02-28T15:16:02;0.70;;;0.70;;
3543;SDS011;1786;52.870;9.578;2023-02-28T15:21:11;0.90;;;0.90;;
3543;SDS011;1786;52.870;9.578;2023-02-28T15:23:39;0.77;;;0.77;;
3543;SDS011;1786;52.870;9.578;2023-02-28T15:26:09;0.70;;;0.70;;
3543;SDS011;1786;52.870;9.578;2023-02-28T15:28:37;1.00;;;0.80;;
3543;SDS011;1786;52.870;9.578;2023-02-28T15:31:04;0.87;;;0.87;;
3543;SDS011;1786;52.870;9.578;2023-02-28T15:33:52;1.70;;;0.77;;
3543;SDS011;1786;52.870;9.578;2023-02-28T15:36:18;1.00;;;1.00;;
3543;SDS011;1786;52.870;9.578;2023-02-28T15:38:50;1.63;;;0.90;;
3543;SDS011;1786;52.870;9.578;2023-02-28T15:41:27;0.90;;;0.90;;
3543;SDS011;1786;52.870;9.578;2023-02-28T15:44:13;1.00;;;0.90;;
3543;SDS011;1786;52.870;9.578;2023-02-28T15:46:41;0.87;;;0.73;;
3543;SDS011;1786;52.870;9.578;2023-02-28T15:49:16;0.90;;;0.90;;
3543;SDS011;1786;52.870;9.578;2023-02-28T15:51:45;1.07;;;0.80;;
3543;SDS011;1786;52.870;9.578;2023-02-28T15:54:15;0.93;;;0.93;;
3543;SDS011;1786;52.870;9.578;2023-02-28T15:56:46;0.87;;;0.87;;
3543;SDS011;1786;52.870;9.578;2023-02-28T15:59:18;7.30;;;1.27;;
3543;SDS011;1786;52.870;9.578;2023-02-28T16:01:45;1.17;;;1.07;;
3543;SDS011;1786;52.870;9.578;2023-02-28T16:04:16;1.00;;;1.00;;
3543;SDS011;1786;52.870;9.578;2023-02-28T16:06:44;1.57;;;1.47;;
3543;SDS011;1786;52.870;9.578;2023-02-28T16:09:12;1.37;;;1.20;;
3543;SDS011;1786;52.870;9.578;2023-02-28T16:11:46;7.07;;;1.30;;
3543;SDS011;1786;52.870;9.578;2023-02-28T16:14:15;1.23;;;1.13;;
3543;SDS011;1786;52.870;9.578;2023-02-28T16:16:44;0.77;;;0.77;;
3543;SDS011;1786;52.870;9.578;2023-02-28T16:19:10;1.20;;;1.10;;
3543;SDS011;1786;52.870;9.578;2023-02-28T16:21:37;1.10;;;1.10;;
3543;SDS011;1786;52.870;9.578;2023-02-28T16:24:04;1.50;;;1.40;;
3543;SDS011;1786;52.870;9.578;2023-02-28T16:26:31;1.50;;;1.00;;
3543;SDS011;1786;52.870;9.578;2023-02-28T16:29:00;3.57;;;3.17;;
3543;SDS011;1786;52.870;9.578;2023-02-28T16:31:27;7.20;;;5.10;;
3543;SDS011;1786;52.870;9.578;2023-02-28T16:33:55;1.90;;;1.00;;
3543;SDS011;1786;52.870;9.578;2023-02-28T16:36:24;18.03;;;7.57;;
3543;SDS011;1786;52.870;9.578;2023-02-28T16:38:54;9.13;;;5.77;;
3543;SDS011;1786;52.870;9.578;2023-02-28T16:41:21;1.37;;;1.30;;
3543;SDS011;1786;52.870;9.578;2023-02-28T16:43:49;5.73;;;3.37;;
3543;SDS011;1786;52.870;9.578;2023-02-28T16:46:16;12.87;;;7.17;;
3543;SDS011;1786;52.870;9.578;2023-02-28T16:48:43;5.37;;;3.70;;
3543;SDS011;1786;52.870;9.578;2023-02-28T16:51:13;4.43;;;3.90;;
3543;SDS011;1786;52.870;9.578;2023-02-28T16:53:40;1.70;;;1.60;;
3543;SDS011;1786;52.870;9.578;2023-02-28T16:56:12;2.03;;;1.50;;
3543;SDS011;1786;52.870;9.578;2023-02-28T16:58:41;1.40;;;1.40;;
3543;SDS011;1786;52.870;9.578;2023-02-28T17:01:07;2.10;;;1.90;;
3543;SDS011;1786;52.870;9.578;2023-02-28T17:03:34;2.97;;;2.07;;
3543;SDS011;1786;52.870;9.578;2023-02-28T17:06:03;1.60;;;1.50;;
3543;SDS011;1786;52.870;9.578;2023-02-28T17:08:30;1.37;;;1.27;;
3543;SDS011;1786;52.870;9.578;2023-02-28T17:10:58;1.50;;;1.30;;
3543;SDS011;1786;52.870;9.578;2023-02-28T17:13:25;1.90;;;1.80;;
3543;SDS011;1786;52.870;9.578;2023-02-28T17:15:51;2.73;;;1.20;;
3543;SDS011;1786;52.870;9.578;2023-02-28T17:18:18;1.50;;;1.50;;
3543;SDS011;1786;52.870;9.578;2023-02-28T17:20:45;1.70;;;1.60;;
3543;SDS011;1786;52.870;9.578;2023-02-28T17:23:12;2.37;;;1.20;;